Time;durP1;ratioP1;P1;durP2;ratioP2;P2;SDS_P1;SDS_P2;PMS_P1;PMS_P2;Temp;Humidity;BMP_temperature;BMP_pressure;BME280_temperature;BME280_humidity;BME280_pressure;Samples;Min_cycle;Max_cycle;Signal;HPM_P1;HPM_P2
2021/08/12 00:00:23;;;;;;;9.55;4.88;;;;;;;;;;5111731;28;20019;-66
2021/08/12 00:02:49;;;;;;;10.52;5.05;;;;;;;;;;5111137;28;20387;-68
2021/08/12 00:05:15;;;;;;;10.10;4.88;;;;;;;;;;5110900;28;20016;-68
2021/08/12 00:07:41;;;;;;;10.52;4.95;;;;;;;;;;5111183;28;20577;-68
2021/08/12 00:10:33;;;;;;;8.73;4.75;;;;;;;;;;5111589;27;20520;-66
2021/08/12 00:14:00;;;;;;;8.25;4.20;;;;;;;;;;5111824;27;20473;-66
2021/08/12 00:17:44;;;;;;;8.07;4.15;;;;;;;;;;5111135;27;20915;-66
2021/08/12 00:20:11;;;;;;;8.90;4.30;;;;;;;;;;5111492;28;20418;-66
2021/08/12 00:22:37;;;;;;;10.20;4.55;;;;;;;;;;5111451;28;20534;-66
2021/08/12 00:25:22;;;;;;;9.45;4.82;;;;;;;;;;5111335;27;20397;-68
2021/08/12 00:27:48;;;;;;;10.32;4.50;;;;;;;;;;5111336;28;20034;-66
2021/08/12 00:30:57;;;;;;;9.25;4.53;;;;;;;;;;5111736;27;20412;-66
2021/08/12 00:33:23;;;;;;;8.10;4.70;;;;;;;;;;5111221;28;20392;-68
2021/08/12 00:35:49;;;;;;;11.98;4.65;;;;;;;;;;5111318;28;20024;-66
2021/08/12 00:40:28;;;;;;;10.40;5.28;;;;;;;;;;5132164;27;20309;-66
2021/08/12 00:42:54;;;;;;;10.75;5.38;;;;;;;;;;5111254;28;20517;-66
2021/08/12 00:45:43;;;;;;;9.77;4.95;;;;;;;;;;5111607;27;20770;-66
2021/08/12 00:48:09;;;;;;;9.23;4.45;;;;;;;;;;5111365;28;20472;-68
2021/08/12 00:50:37;;;;;;;11.27;5.13;;;;;;;;;;5111292;28;20099;-66
2021/08/12 00:53:03;;;;;;;12.40;4.90;;;;;;;;;;5110780;28;20035;-66
2021/08/12 00:55:29;;;;;;;9.38;4.63;;;;;;;;;;5126923;28;20034;-66
2021/08/12 00:57:55;;;;;;;9.38;4.50;;;;;;;;;;5111134;28;20145;-66
2021/08/12 01:00:22;;;;;;;12.00;5.15;;;;;;;;;;5126553;28;20115;-66
2021/08/12 01:02:49;;;;;;;12.23;5.03;;;;;;;;;;5126822;28;20027;-67
2021/08/12 01:05:16;;;;;;;10.60;5.00;;;;;;;;;;5110836;28;20031;-66
2021/08/12 01:08:22;;;;;;;10.10;4.88;;;;;;;;;;5110915;27;20502;-68
2021/08/12 01:11:02;;;;;;;8.20;4.22;;;;;;;;;;5111510;28;20020;-66
2021/08/12 01:13:29;;;;;;;7.57;3.88;;;;;;;;;;5111149;28;20544;-67
2021/08/12 01:15:57;;;;;;;9.32;4.38;;;;;;;;;;5111213;28;20491;-67
2021/08/12 01:18:29;;;;;;;12.63;4.68;;;;;;;;;;5109987;28;20027;-67
2021/08/12 01:20:58;;;;;;;10.48;4.80;;;;;;;;;;5110878;28;20431;-67
2021/08/12 01:23:26;;;;;;;10.85;4.40;;;;;;;;;;5109779;28;20055;-67
2021/08/12 01:25:53;;;;;;;8.15;4.40;;;;;;;;;;5110955;28;20492;-67
2021/08/12 01:28:22;;;;;;;9.45;4.35;;;;;;;;;;5109222;28;20051;-66
2021/08/12 01:32:23;;;;;;;9.10;4.88;;;;;;;;;;5111653;27;20408;-65
2021/08/12 01:34:49;;;;;;;8.63;4.28;;;;;;;;;;5126860;28;20038;-66
2021/08/12 01:37:16;;;;;;;9.10;4.97;;;;;;;;;;5111222;28;20028;-66
2021/08/12 01:39:43;;;;;;;9.95;4.70;;;;;;;;;;5111201;28;20020;-66
2021/08/12 01:42:12;;;;;;;10.32;4.45;;;;;;;;;;5126682;28;20107;-66
2021/08/12 01:44:39;;;;;;;8.77;4.53;;;;;;;;;;5111094;28;20548;-66
2021/08/12 01:47:06;;;;;;;7.13;4.20;;;;;;;;;;5111075;28;20024;-68
2021/08/12 01:49:32;;;;;;;9.32;4.25;;;;;;;;;;5126481;28;20472;-67
2021/08/12 01:51:59;;;;;;;8.77;4.15;;;;;;;;;;5111461;28;20110;-67
2021/08/12 01:54:25;;;;;;;8.57;4.22;;;;;;;;;;5111161;28;20095;-67
2021/08/12 01:58:17;;;;;;;8.30;4.30;;;;;;;;;;5112040;27;20388;-66
2021/08/12 02:00:47;;;;;;;9.70;4.20;;;;;;;;;;5110094;28;20558;-66
2021/08/12 02:03:17;;;;;;;8.10;4.35;;;;;;;;;;5111077;28;20024;-66
2021/08/12 02:05:44;;;;;;;10.02;4.53;;;;;;;;;;5109924;28;20027;-66
2021/08/12 02:08:11;;;;;;;9.30;4.05;;;;;;;;;;5111179;28;20028;-66
2021/08/12 02:10:37;;;;;;;9.20;4.53;;;;;;;;;;5110709;28;20028;-66
2021/08/12 02:13:06;;;;;;;7.53;3.65;;;;;;;;;;5111644;28;20372;-66
2021/08/12 02:15:32;;;;;;;8.98;3.85;;;;;;;;;;5111153;28;20035;-66
2021/08/12 02:17:58;;;;;;;7.70;3.33;;;;;;;;;;5110574;28;20476;-66
2021/08/12 02:20:24;;;;;;;6.63;3.33;;;;;;;;;;5110971;28;20417;-66
2021/08/12 02:23:13;;;;;;;6.22;3.33;;;;;;;;;;5111119;28;20028;-66
2021/08/12 02:25:47;;;;;;;8.05;3.28;;;;;;;;;;5098838;28;20032;-66
2021/08/12 02:28:13;;;;;;;7.10;3.75;;;;;;;;;;5109587;28;20027;-66
2021/08/12 02:30:41;;;;;;;7.22;3.28;;;;;;;;;;5109120;28;20391;-66
2021/08/12 02:33:09;;;;;;;6.43;3.38;;;;;;;;;;5110707;28;20551;-66
2021/08/12 02:35:36;;;;;;;8.60;3.55;;;;;;;;;;5110645;28;20491;-66
2021/08/12 02:38:03;;;;;;;6.30;3.40;;;;;;;;;;5110377;28;20028;-66
2021/08/12 02:41:07;;;;;;;6.20;3.25;;;;;;;;;;5132176;27;20415;-65
2021/08/12 02:43:36;;;;;;;7.93;3.97;;;;;;;;;;5131778;28;20034;-66
2021/08/12 02:46:03;;;;;;;7.40;4.18;;;;;;;;;;5147536;27;20023;-66
2021/08/12 02:48:30;;;;;;;8.00;4.65;;;;;;;;;;5147741;27;20023;-65
2021/08/12 02:50:58;;;;;;;7.32;3.83;;;;;;;;;;5147600;27;20024;-66
2021/08/12 02:53:25;;;;;;;8.20;3.85;;;;;;;;;;5131300;28;20368;-66
2021/08/12 02:55:52;;;;;;;8.13;3.88;;;;;;;;;;5147649;27;20023;-66
2021/08/12 02:58:19;;;;;;;6.30;3.25;;;;;;;;;;5147471;27;20111;-67
2021/08/12 03:01:11;;;;;;;8.02;4.22;;;;;;;;;;5111844;27;20512;-66
2021/08/12 03:03:40;;;;;;;9.55;4.30;;;;;;;;;;5111405;28;20020;-66
2021/08/12 03:06:07;;;;;;;7.60;3.63;;;;;;;;;;5110931;28;20023;-66
2021/08/12 03:09:43;;;;;;;6.57;3.47;;;;;;;;;;5173943;27;20306;-66
2021/08/12 03:12:10;;;;;;;7.88;3.15;;;;;;;;;;5152551;27;20391;-66
2021/08/12 03:14:37;;;;;;;7.18;3.28;;;;;;;;;;5152073;27;20046;-66
2021/08/12 03:17:04;;;;;;;11.02;3.63;;;;;;;;;;5152780;27;20098;-66
2021/08/12 03:19:30;;;;;;;7.95;3.65;;;;;;;;;;5152401;27;20023;-66
2021/08/12 03:25:37;;;;;;;7.63;4.18;;;;;;;;;;5111958;27;20904;-66
2021/08/12 03:28:04;;;;;;;9.77;3.97;;;;;;;;;;5111075;28;20024;-66
2021/08/12 03:30:30;;;;;;;16.05;3.67;;;;;;;;;;5111288;28;20099;-66
2021/08/12 03:32:56;;;;;;;8.30;4.10;;;;;;;;;;5111209;28;20031;-66
2021/08/12 03:37:24;;;;;;;7.03;3.70;;;;;;;;;;5112099;27;20787;-67
2021/08/12 03:41:45;;;;;;;7.93;3.17;;;;;;;;;;5111234;27;20454;-66
2021/08/12 03:44:11;;;;;;;10.23;4.72;;;;;;;;;;5111343;28;20043;-66
2021/08/12 03:46:38;;;;;;;10.25;4.85;;;;;;;;;;5111254;28;20392;-66
2021/08/12 03:49:05;;;;;;;8.35;4.30;;;;;;;;;;5110993;28;20031;-66
2021/08/12 03:52:39;;;;;;;9.27;4.07;;;;;;;;;;5111422;27;20397;-67
2021/08/12 03:55:05;;;;;;;10.80;4.72;;;;;;;;;;5111496;28;20016;-68
2021/08/12 03:57:32;;;;;;;8.63;4.18;;;;;;;;;;5111288;28;20050;-67
2021/08/12 03:59:58;;;;;;;7.13;3.65;;;;;;;;;;5110149;28;20383;-67
2021/08/12 04:02:24;;;;;;;7.43;3.78;;;;;;;;;;5110996;28;20035;-67
2021/08/12 04:05:19;;;;;;;9.02;3.65;;;;;;;;;;5111767;27;20485;-67
2021/08/12 04:07:45;;;;;;;8.35;3.33;;;;;;;;;;5111608;28;20052;-67
2021/08/12 04:10:11;;;;;;;7.40;3.17;;;;;;;;;;5126754;28;20050;-68
2021/08/12 04:12:52;;;;;;;7.28;3.22;;;;;;;;;;5112231;27;20754;-67
2021/08/12 04:15:18;;;;;;;7.93;3.42;;;;;;;;;;5111303;28;20027;-66
2021/08/12 04:17:45;;;;;;;7.53;3.17;;;;;;;;;;5110854;28;20020;-66
2021/08/12 04:20:11;;;;;;;8.45;3.85;;;;;;;;;;5111564;28;20036;-68
2021/08/12 04:22:37;;;;;;;7.60;3.38;;;;;;;;;;5111409;28;20023;-66
2021/08/12 04:26:01;;;;;;;7.45;2.80;;;;;;;;;;5111967;27;20389;-66
2021/08/12 04:28:27;;;;;;;6.20;3.38;;;;;;;;;;5111592;28;20024;-67
2021/08/12 04:30:53;;;;;;;7.40;3.33;;;;;;;;;;5111133;28;20023;-67
2021/08/12 04:33:20;;;;;;;6.57;3.10;;;;;;;;;;5111281;28;20107;-67
2021/08/12 04:35:46;;;;;;;6.72;2.95;;;;;;;;;;5109919;28;20491;-67
2021/08/12 04:38:12;;;;;;;7.00;2.58;;;;;;;;;;5111183;28;20380;-67
2021/08/12 04:40:38;;;;;;;7.25;3.67;;;;;;;;;;5111138;28;20028;-67
2021/08/12 04:43:05;;;;;;;8.73;3.50;;;;;;;;;;5111123;28;20090;-66
2021/08/12 04:45:31;;;;;;;11.63;3.70;;;;;;;;;;5110558;28;20039;-66
2021/08/12 04:49:37;;;;;;;7.88;4.82;;;;;;;;;;5112059;27;20405;-66
2021/08/12 04:52:04;;;;;;;8.95;3.88;;;;;;;;;;5111308;28;20439;-66
2021/08/12 04:54:30;;;;;;;9.23;3.90;;;;;;;;;;5111283;28;20024;-66
2021/08/12 04:56:56;;;;;;;7.40;3.60;;;;;;;;;;5111312;28;20095;-67
2021/08/12 04:59:22;;;;;;;6.72;3.35;;;;;;;;;;5109471;28;20564;-66
2021/08/12 05:02:43;;;;;;;6.18;3.58;;;;;;;;;;5111784;27;20415;-66
2021/08/12 05:05:10;;;;;;;6.47;3.42;;;;;;;;;;5111751;28;20548;-66
2021/08/12 05:07:36;;;;;;;11.27;3.65;;;;;;;;;;5110869;28;20468;-66
2021/08/12 05:10:47;;;;;;;7.05;3.53;;;;;;;;;;5108366;27;20534;-66
2021/08/12 05:13:14;;;;;;;7.80;3.80;;;;;;;;;;5109210;28;20031;-65
2021/08/12 05:15:40;;;;;;;7.50;3.58;;;;;;;;;;5109884;28;20388;-65
2021/08/12 05:18:07;;;;;;;9.48;4.15;;;;;;;;;;5111154;28;20069;-65
2021/08/12 05:20:33;;;;;;;8.00;3.80;;;;;;;;;;5110594;28;20020;-65
2021/08/12 05:22:59;;;;;;;12.63;4.55;;;;;;;;;;5111237;28;20034;-65
2021/08/12 05:25:25;;;;;;;9.07;4.07;;;;;;;;;;5111060;28;20024;-65
2021/08/12 05:27:51;;;;;;;8.23;4.43;;;;;;;;;;5109229;28;20448;-65
2021/08/12 05:30:18;;;;;;;8.60;4.35;;;;;;;;;;5110807;28;20060;-67
2021/08/12 05:32:44;;;;;;;7.28;3.35;;;;;;;;;;5110818;28;20027;-67
2021/08/12 05:35:10;;;;;;;10.15;3.72;;;;;;;;;;5110435;28;20027;-67
2021/08/12 05:37:37;;;;;;;10.38;4.07;;;;;;;;;;5110883;28;20031;-67
2021/08/12 05:40:03;;;;;;;7.25;3.50;;;;;;;;;;5110884;28;20066;-65
2021/08/12 05:42:29;;;;;;;8.13;3.70;;;;;;;;;;5108318;28;20518;-66
2021/08/12 05:45:25;;;;;;;7.35;3.90;;;;;;;;;;5111203;27;20314;-65
2021/08/12 05:47:51;;;;;;;8.20;3.63;;;;;;;;;;5110918;28;20451;-66
2021/08/12 05:50:18;;;;;;;11.85;4.13;;;;;;;;;;5109966;28;20032;-67
2021/08/12 05:52:44;;;;;;;6.82;3.70;;;;;;;;;;5109851;28;20365;-66
2021/08/12 05:55:10;;;;;;;7.20;3.17;;;;;;;;;;5109378;28;20023;-67
2021/08/12 05:57:36;;;;;;;7.05;3.63;;;;;;;;;;5111005;28;20483;-68
2021/08/12 06:00:03;;;;;;;7.05;3.72;;;;;;;;;;5111282;28;20454;-66
2021/08/12 06:02:32;;;;;;;9.98;4.47;;;;;;;;;;5110675;28;20028;-68
2021/08/12 06:04:58;;;;;;;6.88;3.63;;;;;;;;;;5110934;28;20063;-68
2021/08/12 06:07:24;;;;;;;8.48;3.78;;;;;;;;;;5109581;28;20085;-66
2021/08/12 06:09:51;;;;;;;7.65;3.60;;;;;;;;;;5110414;28;20027;-65
2021/08/12 06:12:17;;;;;;;8.02;3.33;;;;;;;;;;5110829;28;20020;-67
2021/08/12 06:14:43;;;;;;;6.10;3.45;;;;;;;;;;5110694;28;20077;-66
2021/08/12 06:17:09;;;;;;;9.45;3.42;;;;;;;;;;5110257;28;20023;-66
2021/08/12 06:19:35;;;;;;;6.80;3.28;;;;;;;;;;5110758;28;20024;-67
2021/08/12 06:23:16;;;;;;;9.23;4.18;;;;;;;;;;5110949;27;20904;-66
2021/08/12 06:25:42;;;;;;;12.65;3.95;;;;;;;;;;5111450;28;20028;-66
2021/08/12 06:28:09;;;;;;;7.60;3.97;;;;;;;;;;5111188;28;20027;-67
2021/08/12 06:30:35;;;;;;;9.30;3.97;;;;;;;;;;5109475;28;20107;-66
2021/08/12 06:33:01;;;;;;;9.15;3.85;;;;;;;;;;5111240;28;20016;-66
2021/08/12 06:35:31;;;;;;;7.30;3.55;;;;;;;;;;5111000;28;20031;-66
2021/08/12 06:38:31;;;;;;;10.77;3.45;;;;;;;;;;5070501;28;20415;-66
2021/08/12 06:41:29;;;;;;;10.90;4.35;;;;;;;;;;5111288;27;20513;-66
2021/08/12 06:43:56;;;;;;;9.93;3.50;;;;;;;;;;5110866;28;20073;-66
2021/08/12 06:46:22;;;;;;;7.70;3.60;;;;;;;;;;5111166;28;20016;-67
2021/08/12 06:48:49;;;;;;;6.93;3.38;;;;;;;;;;5111191;28;20031;-67
2021/08/12 06:51:15;;;;;;;13.65;4.35;;;;;;;;;;5110578;28;20059;-67
2021/08/12 06:53:41;;;;;;;11.77;5.10;;;;;;;;;;5111028;28;20031;-66
2021/08/12 06:56:08;;;;;;;8.27;4.03;;;;;;;;;;5111022;28;20020;-67
2021/08/12 06:58:34;;;;;;;9.00;4.07;;;;;;;;;;5110586;28;20024;-67
2021/08/12 07:01:00;;;;;;;8.25;3.97;;;;;;;;;;5110830;28;20036;-66
2021/08/12 07:03:26;;;;;;;9.30;3.83;;;;;;;;;;5110712;28;20110;-67
2021/08/12 07:05:52;;;;;;;8.10;4.93;;;;;;;;;;5110420;28;20491;-67
2021/08/12 07:08:18;;;;;;;8.13;3.35;;;;;;;;;;5110952;28;20020;-67
2021/08/12 07:10:45;;;;;;;10.23;4.60;;;;;;;;;;5110709;28;20056;-67
2021/08/12 07:13:12;;;;;;;11.32;4.82;;;;;;;;;;5110340;28;20023;-67
2021/08/12 07:15:38;;;;;;;7.90;4.60;;;;;;;;;;5110629;28;20388;-67
2021/08/12 07:18:04;;;;;;;7.60;4.00;;;;;;;;;;5110504;28;20020;-72
2021/08/12 07:20:30;;;;;;;7.78;3.45;;;;;;;;;;5106329;28;20035;-72
2021/08/12 07:22:56;;;;;;;9.38;3.45;;;;;;;;;;5105745;28;20563;-71
2021/08/12 07:25:23;;;;;;;8.65;3.70;;;;;;;;;;5108822;28;20051;-72
2021/08/12 07:27:50;;;;;;;6.25;3.22;;;;;;;;;;5108852;28;20099;-72
2021/08/12 07:30:17;;;;;;;6.60;3.53;;;;;;;;;;5107710;28;20055;-72
2021/08/12 07:32:43;;;;;;;6.85;3.40;;;;;;;;;;5110141;28;20042;-72
2021/08/12 07:35:10;;;;;;;5.97;3.10;;;;;;;;;;5109074;28;20012;-72
2021/08/12 07:37:36;;;;;;;6.72;3.15;;;;;;;;;;5109918;28;20101;-71
2021/08/12 07:40:02;;;;;;;7.93;3.42;;;;;;;;;;5109404;28;20440;-72
2021/08/12 07:42:29;;;;;;;6.57;3.25;;;;;;;;;;5109759;28;20054;-71
2021/08/12 07:44:57;;;;;;;7.18;3.53;;;;;;;;;;5109920;28;20028;-71
2021/08/12 07:47:23;;;;;;;6.45;3.47;;;;;;;;;;5109212;28;20024;-71
2021/08/12 07:49:49;;;;;;;5.97;2.97;;;;;;;;;;5109154;28;20153;-71
2021/08/12 07:52:17;;;;;;;7.78;3.70;;;;;;;;;;5099239;28;20020;-72
2021/08/12 07:54:46;;;;;;;6.88;3.22;;;;;;;;;;5105633;28;20081;-71
2021/08/12 07:57:12;;;;;;;6.95;3.03;;;;;;;;;;5100619;28;20024;-74
2021/08/12 07:59:38;;;;;;;8.13;4.18;;;;;;;;;;5097493;28;20468;-75
2021/08/12 08:02:05;;;;;;;6.22;3.50;;;;;;;;;;5116546;28;20024;-75
2021/08/12 08:04:31;;;;;;;6.88;3.30;;;;;;;;;;5103463;28;20070;-77
2021/08/12 08:07:03;;;;;;;11.00;3.55;;;;;;;;;;5098732;28;20502;-76
2021/08/12 08:09:32;;;;;;;8.10;3.42;;;;;;;;;;5098671;28;20085;-75
2021/08/12 08:11:59;;;;;;;11.55;3.10;;;;;;;;;;5092599;28;20103;-77
2021/08/12 08:14:28;;;;;;;6.60;3.13;;;;;;;;;;5096423;28;20392;-76
2021/08/12 08:16:54;;;;;;;5.00;2.80;;;;;;;;;;5096226;28;20032;-75
2021/08/12 08:19:21;;;;;;;6.05;2.80;;;;;;;;;;5096199;28;20404;-76
2021/08/12 08:21:47;;;;;;;8.27;3.40;;;;;;;;;;5095039;28;20039;-76
2021/08/12 08:24:13;;;;;;;5.60;3.30;;;;;;;;;;5095628;28;20484;-76
2021/08/12 08:26:39;;;;;;;6.78;3.47;;;;;;;;;;5096101;28;20039;-76
2021/08/12 08:29:05;;;;;;;7.00;3.05;;;;;;;;;;5094002;28;20485;-76
2021/08/12 08:31:32;;;;;;;7.38;3.35;;;;;;;;;;5095580;28;20027;-76
2021/08/12 08:33:59;;;;;;;4.85;2.97;;;;;;;;;;5095942;28;20013;-76
2021/08/12 08:36:26;;;;;;;4.93;2.60;;;;;;;;;;5095362;28;20031;-70
2021/08/12 08:38:52;;;;;;;7.88;3.28;;;;;;;;;;5095400;28;20024;-69
2021/08/12 08:41:19;;;;;;;6.07;3.20;;;;;;;;;;5094975;28;20044;-69
2021/08/12 08:43:45;;;;;;;6.55;2.95;;;;;;;;;;5094496;28;20028;-66
2021/08/12 08:46:11;;;;;;;8.85;3.05;;;;;;;;;;5094976;28;20028;-67
2021/08/12 08:48:41;;;;;;;7.47;3.63;;;;;;;;;;5095182;28;20020;-66
2021/08/12 08:51:08;;;;;;;6.10;3.30;;;;;;;;;;5093253;28;20435;-67
2021/08/12 08:53:38;;;;;;;7.07;2.83;;;;;;;;;;5093593;28;20028;-67
2021/08/12 08:56:05;;;;;;;6.05;3.20;;;;;;;;;;5094673;28;20016;-66
2021/08/12 08:58:31;;;;;;;6.85;3.42;;;;;;;;;;5092292;28;20031;-66
2021/08/12 09:00:57;;;;;;;6.28;2.92;;;;;;;;;;5091836;28;20031;-66
2021/08/12 09:03:23;;;;;;;7.00;3.33;;;;;;;;;;5090562;28;20020;-66
2021/08/12 09:05:49;;;;;;;5.38;3.25;;;;;;;;;;5092173;28;20025;-65
2021/08/12 09:08:17;;;;;;;6.57;3.67;;;;;;;;;;5093494;28;20377;-65
2021/08/12 09:10:43;;;;;;;4.90;2.70;;;;;;;;;;5093591;28;20028;-66
2021/08/12 09:13:09;;;;;;;5.45;2.88;;;;;;;;;;5090955;28;20038;-68
2021/08/12 09:15:42;;;;;;;10.35;3.08;;;;;;;;;;5094227;28;20024;-69
2021/08/12 09:18:22;;;;;;;6.32;3.17;;;;;;;;;;5094110;28;20028;-68
2021/08/12 09:20:50;;;;;;;8.85;3.40;;;;;;;;;;5092882;28;20032;-68
2021/08/12 09:23:16;;;;;;;5.68;3.25;;;;;;;;;;5092957;28;20141;-68
2021/08/12 09:25:50;;;;;;;6.00;2.90;;;;;;;;;;5092480;28;20384;-66
2021/08/12 09:28:32;;;;;;;7.00;3.15;;;;;;;;;;5093876;28;20051;-65
2021/08/12 09:31:01;;;;;;;5.95;2.80;;;;;;;;;;5092960;28;20031;-65
2021/08/12 09:33:43;;;;;;;5.03;3.05;;;;;;;;;;5093795;28;20020;-65
2021/08/12 09:36:23;;;;;;;6.18;3.22;;;;;;;;;;5094036;28;20031;-65
2021/08/12 09:39:05;;;;;;;5.35;3.13;;;;;;;;;;5093679;28;20025;-66
2021/08/12 09:41:38;;;;;;;5.43;3.40;;;;;;;;;;5093821;28;20036;-68
2021/08/12 09:44:05;;;;;;;6.20;3.38;;;;;;;;;;5093960;28;20111;-67
2021/08/12 09:46:34;;;;;;;5.72;2.92;;;;;;;;;;5092200;28;20388;-68
2021/08/12 09:49:01;;;;;;;5.70;3.17;;;;;;;;;;5092679;28;20032;-67
2021/08/12 09:51:35;;;;;;;5.85;3.03;;;;;;;;;;5092677;28;20480;-68
2021/08/12 09:54:02;;;;;;;6.10;3.10;;;;;;;;;;5093645;28;20024;-68
2021/08/12 09:56:28;;;;;;;6.90;3.30;;;;;;;;;;5093942;28;20080;-67
2021/08/12 09:59:05;;;;;;;7.75;3.35;;;;;;;;;;5093098;28;20031;-67
2021/08/12 10:01:31;;;;;;;8.98;2.72;;;;;;;;;;5093179;28;20354;-68
2021/08/12 10:03:57;;;;;;;6.32;3.13;;;;;;;;;;5093950;28;20024;-67
2021/08/12 10:06:25;;;;;;;5.93;2.90;;;;;;;;;;5093610;28;20028;-68
2021/08/12 10:08:52;;;;;;;5.38;3.35;;;;;;;;;;5093566;28;20477;-67
2021/08/12 10:11:28;;;;;;;5.15;2.92;;;;;;;;;;5093799;28;20016;-68
2021/08/12 10:13:54;;;;;;;7.35;3.78;;;;;;;;;;5093547;28;20028;-67
2021/08/12 10:16:21;;;;;;;6.32;2.67;;;;;;;;;;5093066;28;20024;-67
2021/08/12 10:18:48;;;;;;;5.38;2.85;;;;;;;;;;5092756;28;20395;-69
2021/08/12 10:21:15;;;;;;;7.50;3.35;;;;;;;;;;5092578;28;20028;-69
2021/08/12 10:23:43;;;;;;;6.13;3.30;;;;;;;;;;5093212;28;20020;-65
2021/08/12 10:26:10;;;;;;;5.13;2.78;;;;;;;;;;5093605;28;20028;-66
2021/08/12 10:28:42;;;;;;;7.63;3.00;;;;;;;;;;5092990;28;20646;-66
2021/08/12 10:31:09;;;;;;;4.72;2.67;;;;;;;;;;5093775;28;20061;-66
2021/08/12 10:33:35;;;;;;;5.72;3.03;;;;;;;;;;5092241;28;20027;-67
2021/08/12 10:36:02;;;;;;;5.57;2.78;;;;;;;;;;5093147;28;20543;-66
2021/08/12 10:38:28;;;;;;;7.05;3.17;;;;;;;;;;5093592;28;20499;-67
2021/08/12 10:40:56;;;;;;;6.78;3.42;;;;;;;;;;5091914;28;20044;-66
2021/08/12 10:43:29;;;;;;;5.65;3.22;;;;;;;;;;5092517;28;20078;-67
2021/08/12 10:45:56;;;;;;;6.22;2.83;;;;;;;;;;5092640;28;20053;-67
2021/08/12 10:48:24;;;;;;;5.18;2.70;;;;;;;;;;5092000;28;20020;-67
2021/08/12 10:51:01;;;;;;;4.45;2.55;;;;;;;;;;5091810;28;20024;-66
2021/08/12 10:53:27;;;;;;;5.80;3.28;;;;;;;;;;5091763;28;20031;-67
2021/08/12 10:56:01;;;;;;;6.30;2.95;;;;;;;;;;5091529;28;20089;-67
2021/08/12 10:58:29;;;;;;;7.97;4.07;;;;;;;;;;5092187;28;20029;-67
2021/08/12 11:00:58;;;;;;;9.95;4.88;;;;;;;;;;5092861;28;20133;-67
2021/08/12 11:03:34;;;;;;;9.02;4.97;;;;;;;;;;5092861;28;20027;-67
2021/08/12 11:06:07;;;;;;;10.65;4.88;;;;;;;;;;5092652;28;20020;-66
2021/08/12 11:08:59;;;;;;;15.65;4.70;;;;;;;;;;5093139;28;20013;-66
2021/08/12 11:11:25;;;;;;;;;;;;;;;;;;5090702;28;20067;-66
2021/08/12 11:14:11;;;;;;;7.43;4.13;;;;;;;;;;5093184;28;19904;-66
2021/08/12 11:16:45;;;;;;;9.52;4.65;;;;;;;;;;5093212;28;20035;-66
2021/08/12 11:19:20;;;;;;;7.60;3.75;;;;;;;;;;5092795;28;20383;-67
2021/08/12 11:21:46;;;;;;;7.22;3.65;;;;;;;;;;5093155;28;20043;-67
2021/08/12 11:24:32;;;;;;;5.78;2.67;;;;;;;;;;5093142;28;20380;-67
2021/08/12 11:26:59;;;;;;;4.50;2.67;;;;;;;;;;5094416;28;20381;-67
2021/08/12 11:29:25;;;;;;;6.55;3.35;;;;;;;;;;5096937;28;20016;-67
2021/08/12 11:31:51;;;;;;;5.82;2.85;;;;;;;;;;5096863;28;20028;-67
2021/08/12 11:34:22;;;;;;;5.00;2.85;;;;;;;;;;5096438;28;20058;-65
2021/08/12 11:37:07;;;;;;;4.22;2.33;;;;;;;;;;5096892;28;20433;-66
2021/08/12 11:39:34;;;;;;;6.10;3.17;;;;;;;;;;5094742;28;20051;-67
2021/08/12 11:42:00;;;;;;;5.88;2.78;;;;;;;;;;5096892;28;20047;-67
2021/08/12 11:44:27;;;;;;;6.57;3.15;;;;;;;;;;5096505;28;20424;-67
2021/08/12 11:46:53;;;;;;;5.03;2.75;;;;;;;;;;5094891;28;20062;-67
2021/08/12 11:49:20;;;;;;;5.43;2.78;;;;;;;;;;5096554;28;20380;-67
2021/08/12 11:51:46;;;;;;;5.38;2.63;;;;;;;;;;5095255;28;20484;-67
2021/08/12 11:54:23;;;;;;;6.15;2.45;;;;;;;;;;5095957;28;20020;-67
2021/08/12 11:56:51;;;;;;;6.28;3.20;;;;;;;;;;5096705;28;20031;-67
2021/08/12 11:59:24;;;;;;;6.53;2.65;;;;;;;;;;5096540;28;20392;-67
2021/08/12 12:01:51;;;;;;;6.00;3.00;;;;;;;;;;5095928;28;20027;-67
2021/08/12 12:04:17;;;;;;;6.40;3.10;;;;;;;;;;5096226;28;20028;-67
2021/08/12 12:06:47;;;;;;;4.18;2.30;;;;;;;;;;5096527;28;20024;-67
2021/08/12 12:09:20;;;;;;;5.57;2.70;;;;;;;;;;5094421;28;20032;-66
2021/08/12 12:11:54;;;;;;;5.60;2.40;;;;;;;;;;5096046;28;20020;-66
2021/08/12 12:14:24;;;;;;;4.78;2.42;;;;;;;;;;5095786;28;20121;-66
2021/08/12 12:17:09;;;;;;;5.03;2.85;;;;;;;;;;5096079;28;20121;-66
2021/08/12 12:19:35;;;;;;;5.07;2.75;;;;;;;;;;5095995;28;20488;-66
2021/08/12 12:22:02;;;;;;;6.20;3.20;;;;;;;;;;5095650;28;20028;-66
2021/08/12 12:24:29;;;;;;;6.18;2.88;;;;;;;;;;5095867;28;20024;-66
2021/08/12 12:26:58;;;;;;;8.57;4.05;;;;;;;;;;5096285;28;20103;-66
2021/08/12 12:29:25;;;;;;;4.78;2.88;;;;;;;;;;5095713;28;20024;-66
2021/08/12 12:31:57;;;;;;;7.25;3.40;;;;;;;;;;5095776;28;20462;-66
2021/08/12 12:34:24;;;;;;;6.55;3.22;;;;;;;;;;5095629;28;20030;-66
2021/08/12 12:36:50;;;;;;;6.28;3.03;;;;;;;;;;5093971;28;20020;-66
2021/08/12 12:39:20;;;;;;;6.30;3.50;;;;;;;;;;5093931;28;20115;-67
2021/08/12 12:41:46;;;;;;;9.52;3.20;;;;;;;;;;5095854;28;20464;-65
2021/08/12 12:44:13;;;;;;;5.88;3.38;;;;;;;;;;5095128;28;20031;-67
2021/08/12 12:46:40;;;;;;;6.25;3.15;;;;;;;;;;5095404;28;20077;-66
2021/08/12 12:49:35;;;;;;;7.00;2.83;;;;;;;;;;5095574;28;20022;-66
2021/08/12 12:52:08;;;;;;;4.90;3.10;;;;;;;;;;5082312;28;20369;-66
2021/08/12 12:54:35;;;;;;;9.88;3.60;;;;;;;;;;5095196;28;20032;-66
2021/08/12 12:57:01;;;;;;;6.00;2.83;;;;;;;;;;5093515;28;20024;-66
2021/08/12 12:59:28;;;;;;;5.03;2.67;;;;;;;;;;5095158;28;20034;-66
2021/08/12 13:01:55;;;;;;;5.57;2.55;;;;;;;;;;5095043;28;20032;-67
2021/08/12 13:04:22;;;;;;;5.35;3.20;;;;;;;;;;5094873;28;20024;-67
2021/08/12 13:06:48;;;;;;;5.35;2.50;;;;;;;;;;5095091;28;20415;-67
2021/08/12 13:09:37;;;;;;;6.45;3.38;;;;;;;;;;5093734;28;20031;-66
2021/08/12 13:12:22;;;;;;;5.25;3.15;;;;;;;;;;5094854;28;20499;-66
2021/08/12 13:14:48;;;;;;;5.10;2.80;;;;;;;;;;5093599;28;20476;-67
2021/08/12 13:17:29;;;;;;;5.15;2.33;;;;;;;;;;5094836;28;20404;-66
2021/08/12 13:19:55;;;;;;;;;;;;;;;;;;5095219;28;20077;-66
2021/08/12 13:22:21;;;;;;;5.13;2.65;;;;;;;;;;5094672;28;19908;-66
2021/08/12 13:24:47;;;;;;;7.07;2.95;;;;;;;;;;5094319;28;20020;-66
2021/08/12 13:27:14;;;;;;;5.55;2.80;;;;;;;;;;5094598;28;20028;-66
2021/08/12 13:29:40;;;;;;;4.78;2.22;;;;;;;;;;5094610;28;20029;-66
2021/08/12 13:32:07;;;;;;;3.63;2.20;;;;;;;;;;5092910;28;20028;-66
2021/08/12 13:34:34;;;;;;;5.75;3.10;;;;;;;;;;5094553;28;20380;-66
2021/08/12 13:37:01;;;;;;;7.28;3.17;;;;;;;;;;5094426;28;20468;-65
2021/08/12 13:39:27;;;;;;;6.22;3.15;;;;;;;;;;5092408;28;20531;-66
2021/08/12 13:41:55;;;;;;;5.65;3.25;;;;;;;;;;5094501;28;20074;-66
2021/08/12 13:44:22;;;;;;;6.35;3.17;;;;;;;;;;5094412;28;20012;-67
2021/08/12 13:46:49;;;;;;;9.00;3.47;;;;;;;;;;5093843;28;20039;-67
2021/08/12 13:49:15;;;;;;;6.47;3.88;;;;;;;;;;5093850;28;20492;-66
2021/08/12 13:51:41;;;;;;;6.18;2.85;;;;;;;;;;5094099;28;20034;-67
2021/08/12 13:54:08;;;;;;;6.90;3.53;;;;;;;;;;5093886;28;20051;-67
2021/08/12 13:56:34;;;;;;;6.25;3.25;;;;;;;;;;5092911;28;20478;-66
2021/08/12 13:59:00;;;;;;;5.78;3.47;;;;;;;;;;5094046;28;20039;-66
2021/08/12 14:01:29;;;;;;;8.32;4.03;;;;;;;;;;5093691;28;20036;-66
2021/08/12 14:03:55;;;;;;;6.93;3.03;;;;;;;;;;5092704;28;20047;-66
2021/08/12 14:06:21;;;;;;;6.13;3.67;;;;;;;;;;5093899;28;20025;-66
2021/08/12 14:08:47;;;;;;;6.75;3.28;;;;;;;;;;5093572;28;20430;-66
2021/08/12 14:11:13;;;;;;;8.25;3.38;;;;;;;;;;5093876;28;20051;-66
2021/08/12 14:13:40;;;;;;;5.95;3.67;;;;;;;;;;5092532;28;20020;-66
2021/08/12 14:16:06;;;;;;;4.78;3.28;;;;;;;;;;5092164;28;20031;-66
2021/08/12 14:18:33;;;;;;;11.20;3.85;;;;;;;;;;5093754;28;20031;-66
2021/08/12 14:21:00;;;;;;;7.43;3.30;;;;;;;;;;5093453;28;20396;-66
2021/08/12 14:23:26;;;;;;;5.80;2.90;;;;;;;;;;5093782;28;20020;-66
2021/08/12 14:25:52;;;;;;;5.63;3.47;;;;;;;;;;5093725;28;20027;-67
2021/08/12 14:28:18;;;;;;;6.18;2.83;;;;;;;;;;5093256;28;20024;-67
2021/08/12 14:30:45;;;;;;;5.35;2.60;;;;;;;;;;5093621;28;20461;-66
2021/08/12 14:33:11;;;;;;;6.53;3.08;;;;;;;;;;5093861;28;20480;-66
2021/08/12 14:35:37;;;;;;;4.55;3.08;;;;;;;;;;5093196;28;20031;-67
2021/08/12 14:38:03;;;;;;;4.90;2.90;;;;;;;;;;5093580;28;20031;-66
2021/08/12 14:40:31;;;;;;;6.38;3.40;;;;;;;;;;5093153;28;20081;-66
2021/08/12 14:42:58;;;;;;;4.50;3.00;;;;;;;;;;5091792;28;20035;-66
2021/08/12 14:45:24;;;;;;;4.90;2.92;;;;;;;;;;5093547;28;20070;-67
2021/08/12 14:47:50;;;;;;;5.07;2.53;;;;;;;;;;5093464;28;20032;-67
2021/08/12 14:50:16;;;;;;;6.05;3.45;;;;;;;;;;5093022;28;20102;-66
2021/08/12 14:52:43;;;;;;;9.23;3.10;;;;;;;;;;5092157;28;20456;-67
2021/08/12 14:55:09;;;;;;;5.05;3.17;;;;;;;;;;5093540;28;20041;-66
2021/08/12 14:57:35;;;;;;;4.25;2.65;;;;;;;;;;5091712;28;20025;-67
2021/08/12 15:00:02;;;;;;;4.38;2.78;;;;;;;;;;5093395;28;20035;-67
2021/08/12 15:02:28;;;;;;;6.57;2.33;;;;;;;;;;5096057;28;20024;-66
2021/08/12 15:04:54;;;;;;;6.00;3.30;;;;;;;;;;5095764;28;20081;-66
2021/08/12 15:07:22;;;;;;;6.10;2.78;;;;;;;;;;5097457;28;20028;-66
2021/08/12 15:09:48;;;;;;;3.33;2.53;;;;;;;;;;5095998;28;20361;-66
2021/08/12 15:12:14;;;;;;;7.47;2.65;;;;;;;;;;5096860;28;20017;-68
2021/08/12 15:14:41;;;;;;;5.03;2.78;;;;;;;;;;5097181;28;20055;-67